createdAt,value
2022-10-17T00:00:10.413Z,56.08
2022-10-17T00:03:03.071Z,56.10
2022-10-17T00:05:35.605Z,56.12
2022-10-17T00:08:08.278Z,56.18
2022-10-17T00:10:43.609Z,56.26
2022-10-17T00:13:16.275Z,56.17
2022-10-17T00:15:51.711Z,56.17
2022-10-17T00:18:25.794Z,56.17
2022-10-17T00:20:58.449Z,56.30
2022-10-17T00:23:31.985Z,56.23
2022-10-17T00:26:07.872Z,56.33
2022-10-17T00:28:40.795Z,56.32
2022-10-17T00:31:13.182Z,56.41
2022-10-17T00:33:47.289Z,56.46
2022-10-17T00:36:21.889Z,56.49
2022-10-17T00:39:01.498Z,56.60
2022-10-17T00:41:36.521Z,56.68
2022-10-17T00:44:24.669Z,56.75
2022-10-17T00:46:57.180Z,56.58
2022-10-17T00:49:32.999Z,56.54
2022-10-17T00:52:10.738Z,56.59
2022-10-17T00:54:44.704Z,56.56
2022-10-17T00:57:17.257Z,56.52
2022-10-17T00:59:55.036Z,56.58
2022-10-17T01:02:29.171Z,56.69
2022-10-17T01:05:03.218Z,56.74
2022-10-17T01:07:37.316Z,56.87
2022-10-17T01:10:11.527Z,56.99
2022-10-17T01:13:02.045Z,57.06
2022-10-17T01:15:46.630Z,57.08
2022-10-17T01:18:25.743Z,57.08
2022-10-17T01:21:28.248Z,57.02
2022-10-17T01:24:47.934Z,57.01
2022-10-17T01:27:43.306Z,57.08
2022-10-17T01:30:50.586Z,57.07
2022-10-17T01:33:37.006Z,57.11
2022-10-17T01:36:14.191Z,57.20
2022-10-17T01:38:52.224Z,57.41
2022-10-17T01:41:31.274Z,57.34
2022-10-17T01:44:06.510Z,57.31
2022-10-17T01:46:40.123Z,57.44
2022-10-17T01:49:17.398Z,57.27
2022-10-17T01:51:52.736Z,57.17
2022-10-17T01:54:28.888Z,57.19
2022-10-17T01:57:03.997Z,57.32
2022-10-17T01:59:40.339Z,57.38
2022-10-17T02:02:12.955Z,57.41
2022-10-17T02:04:45.881Z,57.56
2022-10-17T02:07:20.569Z,57.46
2022-10-17T02:09:56.544Z,57.50
2022-10-17T02:12:48.883Z,57.46
2022-10-17T02:15:52.865Z,57.30
2022-10-17T02:18:43.185Z,57.02
2022-10-17T02:21:22.530Z,56.99
2022-10-17T02:23:59.791Z,57.02
2022-10-17T02:26:38.733Z,57.21
2022-10-17T02:29:15.906Z,57.38
2022-10-17T02:31:50.089Z,57.45
2022-10-17T02:34:26.177Z,57.45
2022-10-17T02:37:02.585Z,57.46
2022-10-17T02:39:37.095Z,57.39
2022-10-17T02:42:12.830Z,57.26
2022-10-17T02:44:47.222Z,57.28
2022-10-17T02:47:26.784Z,57.31
2022-10-17T02:50:04.371Z,57.52
2022-10-17T02:52:42.818Z,57.81
2022-10-17T02:55:18.146Z,57.92
2022-10-17T02:57:52.059Z,57.97
2022-10-17T03:00:25.376Z,57.99
2022-10-17T03:02:59.690Z,57.99
2022-10-17T03:05:33.109Z,58.02
2022-10-17T03:08:06.366Z,57.84
2022-10-17T03:10:41.029Z,57.81
2022-10-17T03:13:14.387Z,57.78
2022-10-17T03:15:47.294Z,57.89
2022-10-17T03:18:23.837Z,58.04
2022-10-17T03:20:56.419Z,58.07
2022-10-17T03:23:30.946Z,58.13
2022-10-17T03:26:06.596Z,58.15
2022-10-17T03:28:38.659Z,58.17
2022-10-17T03:31:12.372Z,58.18
2022-10-17T03:33:45.421Z,58.47
2022-10-17T03:36:19.153Z,58.36
2022-10-17T03:38:55.534Z,58.35
2022-10-17T03:41:28.742Z,58.15
2022-10-17T03:44:02.299Z,57.98
2022-10-17T03:46:38.359Z,57.97
2022-10-17T03:49:12.740Z,57.92
2022-10-17T03:51:45.063Z,57.98
2022-10-17T03:54:18.125Z,57.95
2022-10-17T03:56:52.335Z,57.99
2022-10-17T03:59:26.898Z,58.10
2022-10-17T04:02:00.006Z,58.25
2022-10-17T04:04:34.061Z,58.25
2022-10-17T04:07:08.226Z,58.13
2022-10-17T04:09:40.128Z,58.17
2022-10-17T04:12:13.473Z,58.14
2022-10-17T04:14:45.249Z,58.10
2022-10-17T04:17:43.709Z,57.96
2022-10-17T04:20:16.905Z,57.93
2022-10-17T04:22:51.942Z,58.20
2022-10-17T04:25:54.486Z,58.12
2022-10-17T04:29:20.164Z,58.22
2022-10-17T04:31:57.011Z,58.39
2022-10-17T04:34:56.648Z,58.55
2022-10-17T04:37:35.862Z,58.62
2022-10-17T04:40:16.647Z,58.57
2022-10-17T04:42:49.899Z,58.46
2022-10-17T04:45:31.117Z,58.43
2022-10-17T04:48:34.570Z,58.39
2022-10-17T04:51:12.876Z,58.27
2022-10-17T04:54:11.298Z,58.13
2022-10-17T04:57:11.424Z,58.15
2022-10-17T04:59:44.406Z,58.15
2022-10-17T05:03:04.719Z,58.33
2022-10-17T05:05:41.096Z,58.30
2022-10-17T05:11:39.081Z,58.60
2022-10-17T05:14:15.060Z,58.66
2022-10-17T05:20:21.257Z,58.81
2022-10-17T05:22:53.834Z,58.65
2022-10-17T05:29:21.093Z,58.63
2022-10-17T05:31:57.893Z,58.66
2022-10-17T05:34:36.817Z,58.73
2022-10-17T05:42:37.776Z,58.83
2022-10-17T05:45:14.645Z,58.97
2022-10-17T05:48:11.752Z,58.84
2022-10-17T05:50:58.665Z,58.83
2022-10-17T05:57:02.859Z,59.27
2022-10-17T05:59:41.147Z,59.31
2022-10-17T06:03:04.013Z,59.44
2022-10-17T06:05:40.686Z,59.45
2022-10-17T06:08:23.809Z,59.41
2022-10-17T06:10:59.352Z,59.33
2022-10-17T06:16:59.115Z,59.10
2022-10-17T06:19:32.705Z,59.09
2022-10-17T06:22:30.169Z,59.05
2022-10-17T06:25:05.693Z,59.13
2022-10-17T06:28:28.492Z,59.24
2022-10-17T06:31:13.021Z,59.05
2022-10-17T06:33:51.810Z,59.13
2022-10-17T06:36:29.722Z,59.05
2022-10-17T06:39:53.630Z,59.08
2022-10-17T06:42:31.622Z,59.12
2022-10-17T06:45:33.083Z,59.12
2022-10-17T06:48:12.155Z,59.02
2022-10-17T06:50:44.523Z,59.07
2022-10-17T06:53:46.986Z,59.05
2022-10-17T06:56:46.303Z,59.33
2022-10-17T07:02:42.446Z,59.12
2022-10-17T07:06:08.343Z,59.68
2022-10-17T07:11:45.742Z,59.73
2022-10-17T07:14:23.512Z,59.65
2022-10-17T07:16:56.847Z,59.65
2022-10-17T07:19:57.757Z,59.65
2022-10-17T07:22:56.274Z,59.41
2022-10-17T07:25:57.051Z,59.01
2022-10-17T07:36:10.351Z,58.13
2022-10-17T07:38:49.997Z,57.98
2022-10-17T07:42:10.993Z,57.91
2022-10-17T07:49:01.476Z,57.54
2022-10-17T07:52:04.771Z,57.26
2022-10-17T07:58:05.076Z,56.71
2022-10-17T08:00:52.381Z,56.37
2022-10-17T08:03:55.336Z,56.01
2022-10-17T08:06:33.968Z,56.08
2022-10-17T08:13:01.130Z,55.62
2022-10-17T08:15:35.207Z,55.58
2022-10-17T08:18:10.890Z,55.56
2022-10-17T08:20:46.630Z,55.20
2022-10-17T08:24:07.681Z,54.84
2022-10-17T08:27:56.339Z,54.33
2022-10-17T08:30:34.665Z,53.98
2022-10-17T08:33:36.722Z,53.55
2022-10-17T08:36:38.497Z,53.83
2022-10-17T08:39:36.238Z,53.76
2022-10-17T08:43:04.781Z,53.52
2022-10-17T08:45:43.105Z,53.26
2022-10-17T08:49:32.084Z,52.99
2022-10-17T08:52:57.860Z,52.65
2022-10-17T08:55:54.775Z,52.31
2022-10-17T08:58:44.778Z,51.83
2022-10-17T09:01:36.442Z,51.52
2022-10-17T09:05:05.190Z,51.16
2022-10-17T09:11:04.619Z,51.06
2022-10-17T09:14:29.265Z,50.55
2022-10-17T09:17:36.730Z,50.26
2022-10-17T09:20:26.088Z,50.04
2022-10-17T09:23:33.704Z,49.89
2022-10-17T09:26:07.702Z,49.88
2022-10-17T09:28:49.880Z,49.85
2022-10-17T09:32:28.498Z,49.59
2022-10-17T09:35:11.724Z,48.73
2022-10-17T09:37:48.927Z,48.40
2022-10-17T09:40:29.217Z,48.46
2022-10-17T09:43:12.716Z,48.10
2022-10-17T09:46:00.349Z,47.61
2022-10-17T09:51:52.167Z,46.92
2022-10-17T09:54:31.949Z,46.72
2022-10-17T10:05:03.278Z,46.07
2022-10-17T10:08:14.140Z,45.80
2022-10-17T10:10:47.310Z,45.70
2022-10-17T10:13:46.215Z,45.49
2022-10-17T10:16:58.248Z,45.38
2022-10-17T10:20:03.493Z,44.71
2022-10-17T10:23:14.052Z,44.57
2022-10-17T10:26:24.661Z,44.70
2022-10-17T10:30:15.648Z,44.17
2022-10-17T10:33:41.339Z,43.65
2022-10-17T10:37:07.761Z,43.38
2022-10-17T10:40:07.776Z,43.43
2022-10-17T10:43:05.717Z,43.20
2022-10-17T10:46:07.299Z,42.89
2022-10-17T10:49:04.127Z,43.12
2022-10-17T10:51:48.521Z,43.15
2022-10-17T10:54:30.435Z,42.72
2022-10-17T10:57:41.371Z,42.74
2022-10-17T11:00:53.316Z,42.43
2022-10-17T11:04:07.994Z,42.05
2022-10-17T11:07:14.111Z,42.17
2022-10-17T11:10:22.655Z,42.19
2022-10-17T11:13:29.685Z,41.75
2022-10-17T11:16:19.672Z,41.51
2022-10-17T11:18:54.451Z,41.25
2022-10-17T11:21:36.082Z,41.28
2022-10-17T11:24:16.471Z,41.06
2022-10-17T11:26:58.814Z,41.03
2022-10-17T11:29:33.415Z,41.07
2022-10-17T11:32:09.471Z,41.06
2022-10-17T11:34:47.445Z,40.93
2022-10-17T11:37:21.551Z,40.75
2022-10-17T11:39:56.384Z,40.66
2022-10-17T11:42:32.384Z,40.50
2022-10-17T11:45:10.028Z,40.23
2022-10-17T11:47:48.439Z,39.93
2022-10-17T11:53:18.838Z,39.69
2022-10-17T11:55:52.591Z,39.43
2022-10-17T11:58:34.118Z,39.46
2022-10-17T12:01:18.825Z,39.05
2022-10-17T12:04:05.977Z,38.60
2022-10-17T12:07:00.332Z,38.33
2022-10-17T12:09:41.241Z,37.98
2022-10-17T12:12:28.615Z,37.48
2022-10-17T12:15:31.170Z,37.33
2022-10-17T12:18:05.291Z,37.09
2022-10-17T12:20:40.163Z,36.80
2022-10-17T12:23:32.386Z,36.79
2022-10-17T12:26:06.156Z,36.41
2022-10-17T12:28:45.476Z,36.46
2022-10-17T12:31:32.664Z,36.41
2022-10-17T12:34:17.190Z,35.91
2022-10-17T12:36:50.853Z,35.42
2022-10-17T12:39:53.489Z,35.14
2022-10-17T12:42:54.191Z,34.95
2022-10-17T12:45:56.218Z,34.79
2022-10-17T12:49:07.072Z,34.47
2022-10-17T12:52:10.356Z,34.16
2022-10-17T12:54:53.533Z,33.84
2022-10-17T12:57:39.069Z,33.54
2022-10-17T13:00:22.391Z,33.52
2022-10-17T13:03:03.899Z,33.10
2022-10-17T13:05:37.967Z,32.75
2022-10-17T13:08:18.873Z,32.95
2022-10-17T13:10:53.476Z,32.87
2022-10-17T13:13:39.274Z,32.56
2022-10-17T13:16:15.318Z,32.56
2022-10-17T13:18:55.361Z,32.58
2022-10-17T13:21:29.849Z,32.56
2022-10-17T13:24:03.089Z,32.65
2022-10-17T13:26:34.894Z,32.75
2022-10-17T13:29:11.747Z,32.59
2022-10-17T13:31:46.416Z,32.70
2022-10-17T13:34:22.329Z,33.04
2022-10-17T13:36:57.065Z,33.05
2022-10-17T13:39:45.234Z,32.99
2022-10-17T13:42:28.182Z,33.03
2022-10-17T13:45:02.858Z,33.33
2022-10-17T13:47:41.467Z,33.30
2022-10-17T13:50:43.038Z,33.43
2022-10-17T13:53:28.501Z,33.52
2022-10-17T13:56:27.467Z,33.68
2022-10-17T13:59:06.117Z,33.74
2022-10-17T14:01:40.536Z,33.84
2022-10-17T14:04:19.886Z,34.05
2022-10-17T14:06:54.481Z,34.02
2022-10-17T14:09:28.805Z,34.05
2022-10-17T14:12:05.667Z,33.94
2022-10-17T14:14:58.351Z,33.93
2022-10-17T14:17:33.290Z,34.01
2022-10-17T14:20:40.681Z,33.96
2022-10-17T14:23:22.063Z,34.09
2022-10-17T14:26:08.677Z,34.35
2022-10-17T14:28:43.574Z,34.65
2022-10-17T14:31:26.149Z,34.73
2022-10-17T14:33:58.392Z,34.65
2022-10-17T14:36:41.927Z,34.83
2022-10-17T14:39:23.922Z,35.01
2022-10-17T14:42:02.014Z,35.10
2022-10-17T14:44:38.459Z,35.19
2022-10-17T14:47:42.151Z,35.35
2022-10-17T14:50:26.370Z,35.66
2022-10-17T14:53:06.956Z,35.79
2022-10-17T14:55:40.900Z,35.94
2022-10-17T14:58:30.702Z,35.75
2022-10-17T15:01:06.767Z,35.54
2022-10-17T15:03:39.145Z,35.47
2022-10-17T15:06:19.701Z,35.28
2022-10-17T15:08:52.432Z,35.24
2022-10-17T15:11:25.264Z,35.29
2022-10-17T15:13:57.471Z,35.55
2022-10-17T15:16:34.979Z,35.74
2022-10-17T15:19:07.929Z,35.78
2022-10-17T15:21:46.931Z,36.04
2022-10-17T15:24:24.034Z,36.25
2022-10-17T15:26:56.801Z,36.25
2022-10-17T15:29:33.212Z,36.46
2022-10-17T15:32:11.394Z,36.66
2022-10-17T15:34:45.775Z,36.74
2022-10-17T15:37:22.495Z,36.96
2022-10-17T15:39:57.527Z,36.83
2022-10-17T15:42:32.324Z,37.14
2022-10-17T15:45:06.000Z,37.19
2022-10-17T15:47:39.791Z,37.46
2022-10-17T15:50:16.178Z,37.58
2022-10-17T15:52:50.894Z,37.85
2022-10-17T15:55:22.887Z,38.01
2022-10-17T15:57:57.116Z,38.11
2022-10-17T16:00:30.197Z,38.31
2022-10-17T16:03:07.547Z,38.40
2022-10-17T16:05:40.670Z,38.64
2022-10-17T16:08:14.886Z,38.94
2022-10-17T16:10:47.576Z,39.22
2022-10-17T16:13:21.545Z,39.31
2022-10-17T16:15:55.096Z,39.50
2022-10-17T16:18:28.480Z,39.74
2022-10-17T16:21:06.512Z,39.98
2022-10-17T16:23:42.749Z,40.20
2022-10-17T16:26:17.702Z,40.42
2022-10-17T16:28:51.355Z,40.50
2022-10-17T16:31:28.926Z,40.76
2022-10-17T16:34:04.397Z,40.92
2022-10-17T16:36:37.916Z,41.08
2022-10-17T16:39:11.219Z,41.34
2022-10-17T16:41:46.593Z,41.64
2022-10-17T16:44:19.252Z,41.57
2022-10-17T16:46:51.081Z,41.65
2022-10-17T16:49:28.026Z,41.73
2022-10-17T16:52:01.105Z,41.86
2022-10-17T16:54:35.485Z,41.96
2022-10-17T16:57:09.261Z,42.12
2022-10-17T16:59:42.480Z,42.26
2022-10-17T17:02:17.559Z,42.29
2022-10-17T17:04:57.055Z,42.42
2022-10-17T17:07:31.063Z,42.77
2022-10-17T17:10:07.906Z,42.71
2022-10-17T17:12:39.901Z,42.80
2022-10-17T17:15:13.510Z,42.86
2022-10-17T17:17:52.481Z,42.89
2022-10-17T17:20:27.804Z,43.05
2022-10-17T17:23:01.006Z,43.05
2022-10-17T17:25:33.719Z,43.11
2022-10-17T17:28:11.291Z,43.09
2022-10-17T17:30:45.185Z,43.06
2022-10-17T17:33:20.543Z,43.05
2022-10-17T17:35:57.506Z,43.13
2022-10-17T17:38:32.021Z,43.19
2022-10-17T17:41:06.558Z,43.19
2022-10-17T17:43:41.714Z,43.21
2022-10-17T17:46:16.838Z,43.20
2022-10-17T17:48:52.268Z,43.29
2022-10-17T17:51:29.395Z,43.23
2022-10-17T17:54:04.395Z,43.54
2022-10-17T17:56:36.088Z,43.68
2022-10-17T17:59:08.753Z,43.77
2022-10-17T18:01:44.431Z,43.54
2022-10-17T18:04:17.640Z,43.49
2022-10-17T18:06:50.055Z,43.53
2022-10-17T18:09:23.680Z,43.55
2022-10-17T18:11:57.841Z,43.63
2022-10-17T18:14:30.891Z,43.64
2022-10-17T18:17:05.227Z,43.60
2022-10-17T18:19:43.040Z,43.89
2022-10-17T18:22:19.842Z,43.98
2022-10-17T18:24:54.300Z,43.96
2022-10-17T18:27:27.288Z,44.10
2022-10-17T18:30:00.975Z,44.16
2022-10-17T18:32:37.057Z,44.28
2022-10-17T18:35:11.037Z,44.45
2022-10-17T18:37:44.589Z,44.53
2022-10-17T18:40:19.061Z,44.69
2022-10-17T18:42:51.502Z,44.79
2022-10-17T18:45:25.204Z,44.91
2022-10-17T18:47:58.879Z,45.03
2022-10-17T18:50:33.188Z,44.89
2022-10-17T18:53:09.347Z,45.14
2022-10-17T18:58:24.858Z,45.40
2022-10-17T19:00:58.028Z,45.48
2022-10-17T19:03:30.757Z,45.51
2022-10-17T19:06:07.946Z,45.63
2022-10-17T19:08:41.103Z,45.65
2022-10-17T19:11:17.833Z,45.89
2022-10-17T19:13:50.629Z,45.91
2022-10-17T19:16:24.929Z,45.94
2022-10-17T19:19:04.889Z,45.94
2022-10-17T19:21:39.519Z,46.01
2022-10-17T19:24:16.188Z,46.47
2022-10-17T19:26:50.249Z,46.68
2022-10-17T19:29:26.266Z,46.61
2022-10-17T19:31:59.415Z,46.98
2022-10-17T19:34:31.607Z,47.16
2022-10-17T19:37:07.354Z,47.20
2022-10-17T19:39:41.888Z,47.27
2022-10-17T19:42:16.091Z,47.33
2022-10-17T19:44:51.844Z,47.47
2022-10-17T19:47:29.301Z,47.39
2022-10-17T19:52:43.438Z,47.58
2022-10-17T19:55:17.003Z,47.61
2022-10-17T19:57:50.999Z,47.72
2022-10-17T20:00:28.697Z,48.04
2022-10-17T20:03:04.052Z,48.58
2022-10-17T20:05:39.388Z,48.83
2022-10-17T20:08:16.520Z,48.95
2022-10-17T20:10:49.768Z,49.02
2022-10-17T20:13:23.289Z,49.09
2022-10-17T20:15:59.622Z,49.02
2022-10-17T20:18:32.752Z,49.16
2022-10-17T20:21:09.327Z,48.93
2022-10-17T20:23:44.036Z,49.09
2022-10-17T20:26:37.133Z,49.20
2022-10-17T20:29:18.281Z,49.44
2022-10-17T20:31:51.942Z,49.61
2022-10-17T20:34:28.616Z,49.48
2022-10-17T20:37:02.719Z,49.39
2022-10-17T20:39:38.326Z,49.37
2022-10-17T20:42:11.276Z,49.49
2022-10-17T20:47:39.841Z,49.69
2022-10-17T20:50:12.447Z,49.74
2022-10-17T20:52:44.626Z,49.85
2022-10-17T20:55:18.946Z,49.92
2022-10-17T20:57:52.108Z,49.96
2022-10-17T21:00:25.892Z,50.04
2022-10-17T21:02:59.804Z,50.24
2022-10-17T21:05:33.783Z,50.45
2022-10-17T21:08:08.948Z,50.54
2022-10-17T21:10:42.706Z,50.67
2022-10-17T21:13:17.079Z,50.60
2022-10-17T21:15:49.914Z,50.77
2022-10-17T21:18:23.748Z,50.87
2022-10-17T21:20:56.966Z,51.04
2022-10-17T21:23:29.657Z,51.11
2022-10-17T21:26:08.513Z,51.11
2022-10-17T21:28:43.732Z,51.27
2022-10-17T21:31:18.736Z,51.28
2022-10-17T21:33:52.644Z,51.28
2022-10-17T21:36:25.911Z,51.33
2022-10-17T21:38:59.086Z,51.35
2022-10-17T21:41:35.494Z,51.46
2022-10-17T21:44:11.506Z,52.10
2022-10-17T21:46:45.412Z,52.02
2022-10-17T21:49:21.161Z,51.89
2022-10-17T21:51:54.865Z,51.96
2022-10-17T22:01:46.300Z,51.98
2022-10-17T22:04:20.047Z,52.16
2022-10-17T22:06:53.302Z,52.23
2022-10-17T22:09:27.260Z,52.33
2022-10-17T22:12:01.245Z,52.44
2022-10-17T22:14:34.930Z,52.54
2022-10-17T22:17:07.353Z,52.54
2022-10-17T22:19:39.971Z,52.66
2022-10-17T22:22:12.785Z,52.96
2022-10-17T22:24:44.894Z,52.93
2022-10-17T22:27:19.218Z,53.02
2022-10-17T22:29:54.321Z,52.88
2022-10-17T22:32:27.820Z,53.33
2022-10-17T22:35:05.057Z,53.49
2022-10-17T22:37:38.383Z,53.72
2022-10-17T22:40:11.978Z,53.68
2022-10-17T22:42:45.208Z,53.71
2022-10-17T22:45:17.754Z,53.51
2022-10-17T22:47:49.941Z,53.12
2022-10-17T22:50:24.085Z,53.21
2022-10-17T22:52:56.465Z,53.38
2022-10-17T22:55:29.968Z,53.33
2022-10-17T22:58:05.229Z,53.37
2022-10-17T23:00:37.188Z,53.33
2022-10-17T23:03:09.977Z,53.46
2022-10-17T23:05:42.386Z,53.58
2022-10-17T23:08:16.683Z,53.58
2022-10-17T23:10:50.116Z,53.66
2022-10-17T23:13:22.621Z,53.61
2022-10-17T23:15:56.662Z,53.79
2022-10-17T23:21:06.973Z,53.88
2022-10-17T23:23:39.488Z,53.97
2022-10-17T23:26:17.014Z,54.02
2022-10-17T23:28:51.145Z,54.06
2022-10-17T23:31:24.284Z,54.18
2022-10-17T23:33:56.202Z,54.27
2022-10-17T23:36:28.317Z,54.31
2022-10-17T23:39:01.071Z,54.18
2022-10-17T23:41:34.587Z,54.31
2022-10-17T23:44:08.465Z,54.29
2022-10-17T23:46:40.860Z,54.46
2022-10-17T23:49:15.329Z,54.44
2022-10-17T23:51:50.225Z,54.47
2022-10-17T23:54:22.454Z,54.54
2022-10-17T23:56:56.972Z,54.49
2022-10-17T23:59:29.599Z,54.63
